Terminal Aerodrome Forecast
Issued by NWS Sioux Falls, SD

Home | Current Version | Previous Version | Graphics & Text | Print | Product List | Glossary On
Versions: 1 2 3 4 5 6 7 8 9 10 11 12 13 14 15
269
FTUS43 KFSD 220313 AAA
TAFHON
TAF AMD
KHON 220313Z 2203/2224 VRB04KT P6SM VCTS SCT035CB
     FM220700 30005KT P6SM SCT250
     FM221700 32009KT P6SM FEW250
     FM221900 31012KT P6SM SCT200=

USA.gov is the U.S. government's official web portal to all federal, state and local government web resources and services.